METAR LDZA 260630Z 00000KT CAVOK 05/04 Q1023 NOSIG =
METAR LDZA 260600Z 00000KT CAVOK 04/03 Q1022 NOSIG =
METAR LDZA 260530Z 22003KT CAVOK 03/03 Q1022 NOSIG =
METAR LDZA 260500Z 24003KT 9999 FEW010 03/02 Q1022 NOSIG =
METAR LDZA 260430Z 23003KT CAVOK 03/03 Q1021 NOSIG =
METAR COR LDZA 260400Z 26005KT CAVOK 04/03 Q1021 NOSIG =
METAR COR LDZA 260330Z 24003KT CAVOK 04/03 Q1021 NOSIG =
METAR LDZA 260300Z 25003KT CAVOK 04/03 Q1021 NOSIG =
METAR LDZA 260230Z 22003KT CAVOK 04/03 Q1021 NOSIG =
METAR LDZA 260200Z 24005KT 9999 FEW010 04/03 Q1021 NOSIG =
METAR LDZA 260130Z 26004KT 220V290 9999 FEW010 04/03 Q1021 NOSIG =
METAR LDZA 260100Z 26005KT 9999 FEW010 05/04 Q1020 NOSIG =
METAR LDZA 260030Z 29005KT 250V340 9999 FEW010 05/04 Q1020 NOSIG =
METAR LDZA 260000Z 26006KT 220V310 9999 -RA FEW015 05/04 Q1020 NOSIG =
METAR LDZA 252330Z 25005KT 9999 -RA FEW018 05/04 Q1021 NOSIG =
METAR LDZA 252300Z 26004KT 190V330 9999 FEW018 05/04 Q1020 NOSIG =
METAR LDZA 252230Z VRB01KT 9999 -RA FEW018 05/04 Q1020 NOSIG =
METAR LDZA 252200Z VRB01KT 9999 -RA FEW018 SCT035 05/04 Q1020 NOSIG =
METAR LDZA 252130Z 08004KT 030V110 9999 -RA FEW018 SCT035 05/04 Q1019 NOSIG =
METAR LDZA 252100Z 06008KT 010V110 9999 -RA SCT018 OVC035 05/04 Q1019 RERA NOSIG =
METAR LDZA 252030Z 07007KT 020V110 9999 RA FEW015 OVC030 05/03 Q1018 BECMG NSW =
METAR LDZA 252000Z 05010KT 010V080 8000 RA FEW012 OVC020 05/04 Q1018 NOSIG =
METAR LDZA 251930Z 05013KT 020V080 8000 RA FEW008 OVC014 05/03 Q1017 NOSIG =
METAR LDZA 251900Z 06011KT 020V110 6000 RA SCT008 OVC020 05/04 Q1016 RETSRA TEMPO 3000 =
METAR LDZA 251830Z 05014KT 020V080 6000 TSRA SCT008 SCT025CB OVC040 05/04 Q1016 TEMPO 3000 =
METAR LDZA 251800Z 05019G29KT 010V080 9999 -SHRA SCT020 FEW025TCU OVC040 08/05 Q1014 TEMPO 32020G30KT 3000 TSRA SCT020CB BKN025 =
METAR LDZA 251730Z 05024KT 020V100 9999 FEW020 FEW025TCU BKN030 09/03 Q1013 TEMPO 32020G30KT 4000 SHRA =
METAR LDZA 251700Z 06017G27KT 020V100 9999 FEW030 12/05 Q1011 TEMPO SHRA SCT030TCU =
METAR LDZA 251630Z 05019KT 020V100 CAVOK 13/05 Q1010 TEMPO 03020G30KT SHRA SCT030TCU =
METAR LDZA 251600Z 06016KT 020V100 CAVOK 14/04 Q1010 TEMPO 03020G30KT SHRA SCT030TCU =
METAR LDZA 251530Z 06014KT 020V120 CAVOK 15/04 Q1009 BECMG 03020G30KT =
METAR LDZA 251500Z 05015KT 020V090 CAVOK 16/05 Q1009 TEMPO 03020G30KT =
METAR LDZA 251430Z 06011KT 010V120 CAVOK 16/05 Q1009 NOSIG =
METAR LDZA 251400Z 04013KT 360V090 CAVOK 17/05 Q1010 NOSIG =
METAR LDZA 251330Z 04011KT 360V070 CAVOK 17/05 Q1010 NOSIG =
METAR LDZA 251300Z 03011KT 320V060 CAVOK 17/05 Q1011 NOSIG =
METAR LDZA 251230Z 04012KT 010V070 9999 FEW043 16/05 Q1011 NOSIG =
METAR LDZA 251200Z 05011KT 340V110 9999 FEW043 17/06 Q1012 NOSIG =
METAR LDZA 251130Z 05008KT 330V120 9999 FEW040 17/07 Q1012 NOSIG =
METAR LDZA 251100Z 08007KT 030V140 9999 FEW040 16/05 Q1013 NOSIG =
METAR LDZA 251030Z 05011KT 020V120 9999 FEW040 15/06 Q1013 NOSIG =
METAR LDZA 251000Z 07009KT 010V120 9999 FEW035 16/06 Q1014 NOSIG =
METAR LDZA 250930Z 06011KT 010V110 CAVOK 15/06 Q1014 NOSIG =
METAR LDZA 250900Z 07011KT 030V110 CAVOK 15/06 Q1014 NOSIG =
METAR LDZA 250830Z 08009KT 020V120 CAVOK 14/06 Q1014 NOSIG =
METAR LDZA 250800Z 07011KT 030V110 CAVOK 14/06 Q1014 NOSIG =
METAR LDZA 250730Z 05011KT 020V080 CAVOK 13/06 Q1014 NOSIG =
METAR LDZA 250700Z 02004KT 320V080 CAVOK 11/07 Q1014 TEMPO 05008KT =
METAR LDZA 250630Z VRB02KT CAVOK 09/05 Q1015 TEMPO 05008KT =
METAR LDZA 250600Z 04005KT CAVOK 08/04 Q1015 BECMG 05010KT =
METAR LDZA 250530Z 05006KT 020V080 CAVOK 07/04 Q1014 BECMG 05010KT =
METAR LDZA 250500Z 03006KT CAVOK 05/03 Q1014 NOSIG =
METAR LDZA 250430Z VRB02KT CAVOK 04/02 Q1014 NOSIG =
METAR LDZA 250400Z VRB01KT CAVOK 04/02 Q1014 NOSIG =
METAR LDZA 250330Z 24003KT 210V290 CAVOK 04/02 Q1014 NOSIG =
METAR LDZA 250300Z 32006KT CAVOK 04/03 Q1014 NOSIG =
METAR LDZA 250230Z VRB01KT CAVOK 05/03 Q1014 NOSIG =
METAR LDZA 250200Z 23004KT CAVOK 04/02 Q1014 NOSIG =
METAR LDZA 250130Z VRB01KT CAVOK 05/03 Q1015 NOSIG =
METAR LDZA 250100Z VRB02KT CAVOK 06/03 Q1015 NOSIG =
METAR LDZA 250030Z 24004KT CAVOK 05/02 Q1014 NOSIG =
METAR LDZA 250000Z 19003KT CAVOK 06/03 Q1015 NOSIG =
METAR COR LDZA 242330Z 23002KT CAVOK 06/03 Q1015 NOSIG =
METAR LDZA 242300Z 25003KT CAVOK 06/03 Q1015 NOSIG =
METAR LDZA 242230Z 00000KT CAVOK 07/04 Q1015 NOSIG =
METAR LDZA 242200Z 28001KT CAVOK 07/04 Q1015 NOSIG =
METAR LDZA 242130Z 24001KT CAVOK 08/04 Q1015 NOSIG =
METAR LDZA 242100Z 00000KT CAVOK 09/04 Q1016 NOSIG =
METAR LDZA 242030Z 02002KT CAVOK 10/04 Q1016 NOSIG =
METAR LDZA 242000Z 00000KT CAVOK 11/03 Q1016 NOSIG =
METAR LDZA 241930Z VRB02KT CAVOK 12/03 Q1016 NOSIG =
METAR LDZA 241900Z 00000KT CAVOK 12/04 Q1016 NOSIG =